createdAt,value
2022-10-18T08:05:27.947Z,39.15
2022-10-18T08:08:01.952Z,40.70
2022-10-18T08:10:37.223Z,40.28
2022-10-18T08:13:07.173Z,36.30
2022-10-18T08:15:39.248Z,30.70
2022-10-18T08:18:11.155Z,42.30
2022-10-18T08:20:45.651Z,39.28
2022-10-18T08:23:22.024Z,38.42
2022-10-18T08:25:52.629Z,33.00
2022-10-18T08:28:37.846Z,31.60
2022-10-18T08:31:17.455Z,34.53
2022-10-18T08:33:46.633Z,32.22
2022-10-18T08:36:18.519Z,28.15
2022-10-18T08:38:49.442Z,28.65
2022-10-18T08:41:53.495Z,28.58
2022-10-18T08:44:27.585Z,26.92
2022-10-18T08:47:05.208Z,28.33
2022-10-18T08:49:49.221Z,32.00
2022-10-18T08:52:48.180Z,22.88
2022-10-18T08:55:42.244Z,24.13
2022-10-18T08:58:51.231Z,22.63
2022-10-18T09:01:30.568Z,22.55
2022-10-18T09:04:26.829Z,24.40
2022-10-18T09:07:10.864Z,21.75
2022-10-18T09:09:52.280Z,21.42
2022-10-18T09:12:49.197Z,20.17
2022-10-18T09:15:31.687Z,20.90
2022-10-18T09:18:21.194Z,24.33
2022-10-18T09:20:58.807Z,17.85
2022-10-18T09:23:41.522Z,18.67
2022-10-18T10:29:51.571Z,9.02
2022-10-18T10:32:22.267Z,8.57
2022-10-18T10:34:51.187Z,11.25
2022-10-18T10:37:41.355Z,9.88
2022-10-18T10:40:23.124Z,10.85
2022-10-18T10:43:36.514Z,7.80
2022-10-18T10:46:10.016Z,10.85
2022-10-18T10:49:39.744Z,14.23
2022-10-18T10:52:30.223Z,12.00
2022-10-18T10:55:06.131Z,9.05
2022-10-18T10:57:47.491Z,10.30
2022-10-18T11:00:39.444Z,9.02
2022-10-18T11:03:30.980Z,11.68
2022-10-18T11:06:01.102Z,9.32
2022-10-18T11:08:34.503Z,11.07
2022-10-18T11:11:15.337Z,12.30
2022-10-18T11:13:56.975Z,12.70
